首页
METAR-TAF:

METAR-TAF

机场 :

伊利, 宾夕法尼亚州, 美国

纬度: 42-04-48N, 经度: 080-10-57W, 海拔: 223米

当前天气观测

该预报发布于42分钟前的06:51 UTC
风速12节,风向
温度 21°C
湿度 73%
气压 1013 hPa
能見度: 16.1公里
散云层高于1800英尺
多云层高于2700英尺

METAR: KERI 230651Z AUTO 01012KT 10SM SCT018 BKN027 21/16 A2991 RMK AO2 SLP125 T02110161 TSNO

时间: 03:33 (07:33 UTC)

预报

该预报发布于2小时和13分钟前的05:20 UTC
预报有效从23日的 06点(UTC)到 24日的 06点(UTC)
风速11节,风向
能見度: 10公里
少量云层高于1500英尺
多云层高于2000英尺
多云层高于6000英尺
短暂存在
从 23日的 06点(UTC)到 23日的 10点(UTC)
散云层高于2000英尺
多云层高于6000英尺
从 23日的 1000点(UTC)
风速8节,风向
能見度: 10公里
散云层高于2000英尺
短暂存在
从 23日的 10点(UTC)到 23日的 14点(UTC)
多云层高于2000英尺
从 23日的 1400点(UTC)
风速7节,风向北转西北
能見度: 10公里
散云层高于5000英尺
从 23日的 2100点(UTC)
风速7节,风向北转西北
能見度: 10公里
散云层高于25000英尺

TAF: KERI 230520Z 2306/2406 01011KT P6SM FEW015 BKN020 BKN060 TEMPO 2306/2310 SCT020 BKN060 FM231000 36008KT P6SM SCT020 TEMPO 2310/2314 BKN020 FM231400 33007KT P6SM SCT050 FM232100 33007KT P6SM SCT250

超过4000个机场的气象观测和天气预报(METAR&TAF报告)。

可查询的气象台以黄色和红色小点在地图上表示。

将鼠标移到小点上方,可查看气象台名称。

然后点击查看天气观测和预报。

如需切换地图:点击带黑十字的绿色按钮放大地图;点击带横线的绿色按钮缩小地图;或者点击绿色箭头查看邻近地区的地图。


METAR-TAF: